首页
METAR-TAF:

METAR-TAF

机场 :

门兴格拉德巴赫, 德国

纬度: 51-13-49N, 经度: 006-30-16E, 海拔: 38米

当前天气观测

该预报发布于27分钟前的16:50 UTC
风速3节,风向南转南东,在东转东南南转西南之间变化
温度 27°C
湿度 39%
气压 1017 hPa
能见度10公里或以上
1500米以下无云,无积雨云

METAR: EDLN 171650Z 15003KT 110V200 CAVOK 27/12 Q1017

时间: 19:17 (17:17 UTC)

预报

该预报发布于3小时和17分钟前的14:00 UTC
预报有效从17日的 15点(UTC)到 17日的 24点(UTC)
风速3节,风向多变
能见度10公里或以上
1500米以下无云,无积雨云

TAF: EDLN 171400Z 1715/1724 VRB03KT CAVOK

超过4000个机场的气象观测和天气预报(METAR&TAF报告)。

可查询的气象台以黄色和红色小点在地图上表示。

将鼠标移到小点上方,可查看气象台名称。

然后点击查看天气观测和预报。

如需切换地图:点击带黑十字的绿色按钮放大地图;点击带横线的绿色按钮缩小地图;或者点击绿色箭头查看邻近地区的地图。


METAR-TAF: